Time;durP1;ratioP1;P1;durP2;ratioP2;P2;SDS_P1;SDS_P2;PMS_P1;PMS_P2;Temp;Humidity;BMP_temperature;BMP_pressure;BME280_temperature;BME280_humidity;BME280_pressure;Samples;Min_cycle;Max_cycle;Signal;HPM_P1;HPM_P2
2023/07/04 00:00:10;;;;;;;2.13;0.70;;;;;;;35.48;13.37;100717.06;4990581;28;20520;-73
2023/07/04 00:02:38;;;;;;;2.10;0.60;;;;;;;35.54;13.71;100716.59;4982693;28;20563;-71
2023/07/04 00:05:10;;;;;;;0.80;0.57;;;;;;;35.62;13.48;100718.72;4985346;28;20087;-70
2023/07/04 00:07:41;;;;;;;1.23;0.50;;;;;;;35.64;12.67;100712.28;4984851;28;20061;-73
2023/07/04 00:10:09;;;;;;;;;;;;;;;35.57;13.48;100710.97;4987667;28;20043;-73
2023/07/04 00:12:38;;;;;;;1.05;0.77;;;;;;;35.56;13.59;100708.44;4983472;28;19937;-73
2023/07/04 00:15:11;;;;;;;0.70;0.50;;;;;;;35.57;14.03;100704.75;4985092;28;20097;-76
2023/07/04 00:17:39;;;;;;;1.45;0.80;;;;;;;35.55;14.34;100707.56;4978874;28;20077;-72
2023/07/04 00:20:09;;;;;;;0.98;0.60;;;;;;;35.52;13.88;100710.47;4984428;28;20515;-71
2023/07/04 00:22:40;;;;;;;2.20;0.65;;;;;;;35.48;13.43;100703.63;4977306;28;20068;-75
2023/07/04 00:25:09;;;;;;;2.03;0.60;;;;;;;35.46;13.19;100708.25;4984352;28;20069;-74
2023/07/04 00:27:39;;;;;;;1.20;0.65;;;;;;;35.46;13.22;100700.19;4984837;28;20057;-74
2023/07/04 00:30:10;;;;;;;0.70;0.45;;;;;;;35.39;13.55;100702.50;4978396;28;20066;-73
2023/07/04 00:32:39;;;;;;;1.10;0.60;;;;;;;35.33;13.62;100700.28;4981608;28;20050;-75
2023/07/04 00:35:20;;;;;;;1.65;0.50;;;;;;;35.28;13.34;100706.94;4985990;28;20116;-71
2023/07/04 00:37:50;;;;;;;1.42;0.52;;;;;;;35.17;13.17;100695.19;4965080;28;20051;-70
2023/07/04 00:40:19;;;;;;;1.05;0.60;;;;;;;35.08;14.78;100693.16;4954978;28;20496;-70
2023/07/04 00:42:49;;;;;;;0.77;0.63;;;;;;;34.95;14.37;100689.66;4965118;28;20043;-71
2023/07/04 00:45:20;;;;;;;0.52;0.50;;;;;;;35.00;15.31;100692.84;4961581;28;20106;-71
2023/07/04 00:47:53;;;;;;;0.93;0.60;;;;;;;34.93;14.37;100694.28;4963902;28;20058;-72
2023/07/04 00:50:26;;;;;;;0.50;0.50;;;;;;;34.92;14.11;100687.19;4963520;28;20227;-72
2023/07/04 00:52:58;;;;;;;2.35;0.60;;;;;;;34.86;14.29;100693.03;4964554;28;20057;-75
2023/07/04 00:55:27;;;;;;;2.13;0.60;;;;;;;34.76;14.14;100682.94;4963889;28;20111;-73
2023/07/04 00:57:56;;;;;;;1.15;0.52;;;;;;;34.73;14.87;100683.19;4968224;28;20627;-71
2023/07/04 01:00:25;;;;;;;2.67;0.60;;;;;;;34.78;15.06;100689.06;4974982;28;20504;-73
2023/07/04 01:03:00;;;;;;;2.55;0.88;;;;;;;34.79;15.21;100684.56;4966919;28;20047;-71
2023/07/04 01:05:35;;;;;;;1.35;0.60;;;;;;;34.80;14.94;100684.44;4966300;28;20058;-75
2023/07/04 01:08:11;;;;;;;1.90;0.70;;;;;;;34.71;14.06;100685.13;4962725;28;20592;-71
2023/07/04 01:10:44;;;;;;;0.75;0.57;;;;;;;34.57;14.01;100679.88;4969080;28;20051;-74
2023/07/04 01:13:33;;;;;;;1.00;0.50;;;;;;;34.41;13.99;100680.13;4967560;28;20508;-75
2023/07/04 01:16:03;;;;;;;1.98;0.70;;;;;;;34.38;14.38;100680.31;4963436;28;20050;-70
2023/07/04 01:18:32;;;;;;;1.20;0.70;;;;;;;34.36;15.47;100685.81;4969667;28;20058;-69
2023/07/04 01:21:05;;;;;;;2.10;0.47;;;;;;;34.30;15.02;100680.88;4968280;28;20453;-75
2023/07/04 01:23:42;;;;;;;1.45;0.60;;;;;;;34.22;15.48;100677.88;4980859;28;20502;-72
2023/07/04 01:26:26;;;;;;;0.80;0.40;;;;;;;34.19;15.70;100680.78;4962424;28;20050;-70
2023/07/04 01:28:56;;;;;;;1.38;0.60;;;;;;;34.12;15.78;100677.66;4974636;28;20497;-74
2023/07/04 01:31:26;;;;;;;0.88;0.70;;;;;;;34.03;15.74;100674.75;4961182;28;20061;-71
2023/07/04 01:33:56;;;;;;;1.55;0.60;;;;;;;33.97;15.86;100678.72;4964665;28;20114;-71
2023/07/04 01:36:27;;;;;;;0.70;0.40;;;;;;;33.99;16.70;100677.66;4965082;28;20118;-70
2023/07/04 01:38:59;;;;;;;1.88;0.82;;;;;;;34.00;16.29;100678.50;4984921;28;20038;-70
2023/07/04 01:41:30;;;;;;;0.80;0.40;;;;;;;33.93;15.53;100678.09;4987997;28;20124;-72
2023/07/04 01:44:03;;;;;;;1.60;0.70;;;;;;;33.86;14.42;100674.13;4984034;28;20048;-72
2023/07/04 01:46:33;;;;;;;1.58;0.60;;;;;;;33.80;14.72;100672.69;4981185;28;20056;-71
2023/07/04 01:49:04;;;;;;;1.65;0.77;;;;;;;33.74;16.37;100665.09;4984512;28;20439;-73
2023/07/04 01:51:36;;;;;;;3.25;0.55;;;;;;;33.67;15.59;100670.97;4980885;28;20097;-74
2023/07/04 01:54:06;;;;;;;1.45;0.63;;;;;;;33.58;15.27;100675.13;4975003;28;20524;-73
2023/07/04 01:56:42;;;;;;;2.80;0.98;;;;;;;33.51;16.06;100672.00;4985841;28;20069;-71
2023/07/04 01:59:11;;;;;;;3.75;1.88;;;;;;;33.45;16.28;100676.94;4979426;28;20104;-71
2023/07/04 02:01:39;;;;;;;1.55;0.90;;;;;;;33.40;15.79;100682.59;4988233;28;20053;-71
2023/07/04 02:04:08;;;;;;;2.35;0.90;;;;;;;33.33;16.17;100679.47;4985421;28;20658;-72
2023/07/04 02:06:40;;;;;;;3.65;2.65;;;;;;;33.27;16.39;100679.03;4987813;28;20097;-70
2023/07/04 02:09:08;;;;;;;1.80;0.90;;;;;;;33.16;15.82;100680.59;4973824;28;20826;-73
2023/07/04 02:11:39;;;;;;;3.13;1.70;;;;;;;33.12;16.01;100686.25;4983083;28;20065;-71
2023/07/04 02:14:08;;;;;;;3.40;2.72;;;;;;;32.99;16.64;100696.91;4987314;28;20050;-70
2023/07/04 02:16:37;;;;;;;2.67;1.42;;;;;;;32.89;16.56;100695.78;4989512;28;20113;-71
2023/07/04 02:19:05;;;;;;;2.38;0.98;;;;;;;32.84;16.96;100697.91;4987314;28;20058;-71
2023/07/04 02:21:36;;;;;;;1.52;0.80;;;;;;;32.76;18.50;100693.03;4990175;28;20078;-70
2023/07/04 02:24:06;;;;;;;3.40;0.70;;;;;;;32.72;17.70;100692.38;4987550;28;20132;-70
2023/07/04 02:26:34;;;;;;;0.98;0.60;;;;;;;32.67;17.70;100696.31;4990492;28;20140;-70
2023/07/04 02:29:05;;;;;;;0.60;0.52;;;;;;;32.64;17.62;100709.88;4985953;28;20042;-69
2023/07/04 02:31:34;;;;;;;1.20;0.60;;;;;;;32.53;17.24;100702.56;4986298;28;20067;-71
2023/07/04 02:34:02;;;;;;;1.58;0.70;;;;;;;32.43;17.77;100704.91;4981339;28;20304;-71
2023/07/04 02:36:31;;;;;;;1.20;0.90;;;;;;;32.31;18.47;100706.53;4981731;28;20115;-71
2023/07/04 02:39:00;;;;;;;1.85;0.70;;;;;;;32.22;17.83;100712.47;4985910;28;20574;-74
2023/07/04 02:41:29;;;;;;;1.30;0.80;;;;;;;32.04;17.53;100711.78;4988122;28;20046;-72
2023/07/04 02:43:58;;;;;;;1.80;0.80;;;;;;;31.97;17.73;100710.44;4985188;28;20057;-71
2023/07/04 02:46:29;;;;;;;2.00;0.77;;;;;;;31.87;18.77;100701.22;4985480;28;20051;-73
2023/07/04 02:48:57;;;;;;;1.48;0.80;;;;;;;31.85;19.38;100714.69;4976941;28;20496;-73
2023/07/04 02:51:26;;;;;;;2.28;0.75;;;;;;;31.78;19.55;100716.00;4973097;28;20081;-72
2023/07/04 02:53:54;;;;;;;1.30;0.80;;;;;;;31.66;19.69;100714.94;4984842;28;20046;-72
2023/07/04 02:56:26;;;;;;;2.72;0.93;;;;;;;31.47;18.47;100712.50;4974233;28;20054;-71
2023/07/04 02:58:55;;;;;;;1.52;0.70;;;;;;;31.36;19.13;100708.66;4981686;28;20497;-73
2023/07/04 03:01:24;;;;;;;1.73;0.80;;;;;;;31.30;19.48;100709.91;4981340;28;20058;-70
2023/07/04 03:03:57;;;;;;;1.25;0.70;;;;;;;31.23;20.18;100706.72;4985727;28;20491;-71
2023/07/04 03:06:26;;;;;;;1.27;0.77;;;;;;;31.16;20.77;100710.69;4983082;28;20544;-71
2023/07/04 03:08:56;;;;;;;2.63;0.80;;;;;;;31.04;20.38;100709.59;4984836;28;20075;-71
2023/07/04 03:11:25;;;;;;;2.10;0.70;;;;;;;30.89;19.12;100713.13;4984882;28;20046;-70
2023/07/04 03:13:54;;;;;;;2.00;0.98;;;;;;;30.74;18.84;100714.81;4992825;28;20057;-71
2023/07/04 03:16:22;;;;;;;1.95;0.88;;;;;;;30.66;20.65;100730.41;4987595;28;20054;-70
2023/07/04 03:18:51;;;;;;;2.03;1.00;;;;;;;30.57;20.79;100729.06;4981607;28;20129;-71
2023/07/04 03:21:22;;;;;;;2.50;0.90;;;;;;;30.45;20.94;100733.28;4990796;28;20053;-70
2023/07/04 03:23:51;;;;;;;1.70;0.90;;;;;;;30.35;22.98;100734.75;4984702;28;20105;-69
2023/07/04 03:26:20;;;;;;;2.05;1.00;;;;;;;30.24;22.64;100735.28;4982744;28;20066;-72
2023/07/04 03:28:48;;;;;;;2.03;1.42;;;;;;;30.15;22.92;100737.56;4983525;28;20504;-71
2023/07/04 03:31:17;;;;;;;1.70;1.05;;;;;;;30.05;23.51;100739.84;4985526;28;20148;-70
2023/07/04 03:33:46;;;;;;;3.13;1.10;;;;;;;29.97;23.00;100734.06;4989996;28;20050;-70
2023/07/04 03:36:14;;;;;;;1.60;1.02;;;;;;;29.91;22.70;100740.56;4987326;28;20089;-70
2023/07/04 03:38:47;;;;;;;3.13;0.95;;;;;;;29.81;22.84;100734.84;4983074;28;20074;-68
2023/07/04 03:41:18;;;;;;;2.20;0.90;;;;;;;29.69;24.31;100735.47;4989310;28;20113;-71
2023/07/04 03:43:47;;;;;;;5.47;0.90;;;;;;;29.57;24.05;100736.91;4988549;28;20046;-70
2023/07/04 03:46:15;;;;;;;2.55;1.15;;;;;;;29.49;23.79;100740.91;4986444;28;20292;-70
2023/07/04 03:48:44;;;;;;;1.83;1.15;;;;;;;29.38;23.34;100746.75;4985189;28;20101;-71
2023/07/04 03:51:12;;;;;;;1.20;0.88;;;;;;;29.30;22.93;100747.13;4985146;28;20062;-70
2023/07/04 03:53:41;;;;;;;1.42;0.90;;;;;;;29.21;22.72;100744.94;4987129;28;20058;-70
2023/07/04 03:56:11;;;;;;;2.45;1.05;;;;;;;29.12;22.57;100750.69;4984591;28;20141;-70
2023/07/04 03:58:40;;;;;;;1.73;1.00;;;;;;;28.99;22.15;100748.56;4982214;28;20055;-69
2023/07/04 04:01:09;;;;;;;1.58;0.70;;;;;;;28.90;22.32;100762.31;4988673;28;20051;-71
2023/07/04 04:03:38;;;;;;;2.00;0.82;;;;;;;28.78;22.32;100755.78;4981172;28;20053;-69
2023/07/04 04:06:07;;;;;;;1.92;0.70;;;;;;;28.73;23.12;100751.59;4992095;28;20046;-69
2023/07/04 04:08:36;;;;;;;1.52;0.80;;;;;;;28.65;23.82;100759.06;4987368;28;20788;-69
2023/07/04 04:11:05;;;;;;;2.47;0.80;;;;;;;28.56;23.48;100761.19;4986265;28;20685;-69
2023/07/04 04:13:35;;;;;;;2.65;0.90;;;;;;;28.44;22.73;100756.41;4991114;28;20059;-70
2023/07/04 04:16:04;;;;;;;3.25;1.00;;;;;;;28.35;23.10;100754.16;4986720;28;20058;-69
2023/07/04 04:18:32;;;;;;;1.95;0.93;;;;;;;28.24;23.42;100756.44;4989513;28;20050;-70
2023/07/04 04:21:01;;;;;;;1.67;0.85;;;;;;;28.14;23.58;100761.31;4985357;28;20520;-69
2023/07/04 04:23:30;;;;;;;2.47;0.90;;;;;;;28.04;24.40;100754.63;4983370;28;20070;-69
2023/07/04 04:25:59;;;;;;;3.85;1.00;;;;;;;27.94;24.69;100762.16;4990383;28;20058;-70
2023/07/04 04:28:28;;;;;;;1.30;0.73;;;;;;;27.88;25.21;100771.28;4987358;28;20412;-70
2023/07/04 04:30:58;;;;;;;2.08;1.10;;;;;;;27.81;26.02;100775.09;4983854;28;20046;-70
2023/07/04 04:33:26;;;;;;;2.58;1.20;;;;;;;27.74;26.54;100782.47;4985581;28;20637;-70
2023/07/04 04:35:55;;;;;;;2.63;1.00;;;;;;;27.69;27.13;100779.09;4987340;28;20112;-69
2023/07/04 04:38:23;;;;;;;2.45;1.00;;;;;;;27.60;26.81;100783.94;4992689;28;20057;-69
2023/07/04 04:40:53;;;;;;;2.22;1.05;;;;;;;27.54;27.13;100780.59;4990109;28;20046;-71
2023/07/04 04:43:21;;;;;;;2.03;1.15;;;;;;;27.42;27.43;100774.91;4981770;28;20086;-69
2023/07/04 04:45:50;;;;;;;3.00;1.10;;;;;;;27.38;28.00;100781.31;4991216;28;20046;-70
2023/07/04 04:48:29;;;;;;;3.13;1.27;;;;;;;27.28;28.11;100776.34;4990126;28;20120;-70
2023/07/04 04:50:59;;;;;;;3.35;1.35;;;;;;;27.22;28.39;100776.59;4985686;28;20492;-71
2023/07/04 04:53:28;;;;;;;5.45;1.48;;;;;;;27.11;28.92;100773.44;4990376;28;20065;-71
2023/07/04 04:55:57;;;;;;;6.47;1.27;;;;;;;27.10;29.45;100787.69;4986606;28;20050;-70
2023/07/04 04:58:25;;;;;;;6.05;1.75;;;;;;;27.02;29.40;100779.97;4989340;28;20086;-70
2023/07/04 05:00:54;;;;;;;2.20;0.95;;;;;;;26.91;30.08;100780.38;4991324;28;20065;-70
2023/07/04 05:03:25;;;;;;;2.60;1.27;;;;;;;26.90;30.26;100791.94;4989543;28;20633;-70
2023/07/04 05:05:53;;;;;;;3.22;1.27;;;;;;;26.83;30.57;100790.44;4991536;28;20047;-70
2023/07/04 05:08:22;;;;;;;2.30;1.13;;;;;;;26.75;30.78;100792.50;4988389;28;20113;-69
2023/07/04 05:11:02;;;;;;;5.40;1.63;;;;;;;26.64;30.22;100800.00;4989416;28;20050;-71
2023/07/04 05:13:31;;;;;;;3.17;1.50;;;;;;;26.54;31.17;100795.03;4990444;28;20527;-69
2023/07/04 05:16:03;;;;;;;3.60;1.52;;;;;;;26.45;31.14;100799.78;4990072;28;20120;-69
2023/07/04 05:18:36;;;;;;;4.32;1.42;;;;;;;26.36;31.47;100800.97;4988981;28;20054;-69
2023/07/04 05:21:08;;;;;;;1.77;1.30;;;;;;;26.27;32.13;100801.28;4988819;28;20064;-71
2023/07/04 05:23:39;;;;;;;4.85;1.75;;;;;;;26.20;32.03;100805.06;4987924;28;20256;-70
2023/07/04 05:26:09;;;;;;;4.13;1.20;;;;;;;26.12;32.25;100797.41;4989548;28;20046;-70
2023/07/04 05:28:38;;;;;;;2.90;1.27;;;;;;;26.00;31.69;100804.00;4990351;28;20145;-71
2023/07/04 05:31:09;;;;;;;4.47;1.23;;;;;;;25.90;32.03;100802.56;4989043;28;20056;-70
2023/07/04 05:33:39;;;;;;;3.05;1.20;;;;;;;25.81;32.80;100803.69;4988378;28;20054;-68
2023/07/04 05:36:10;;;;;;;4.50;1.35;;;;;;;25.77;33.40;100802.06;4988971;28;20062;-68
2023/07/04 05:38:40;;;;;;;5.00;1.52;;;;;;;25.69;33.30;100802.31;4990086;28;20130;-68
2023/07/04 05:41:14;;;;;;;3.72;1.33;;;;;;;25.63;33.07;100805.19;4991007;28;20732;-68
2023/07/04 05:43:43;;;;;;;4.60;1.70;;;;;;;25.55;33.57;100811.63;4987142;28;20045;-68
2023/07/04 05:46:13;;;;;;;3.80;1.23;;;;;;;25.43;33.67;100802.28;4990269;28;20492;-68
2023/07/04 05:48:44;;;;;;;2.67;1.60;;;;;;;25.31;34.24;100807.94;4986931;28;20511;-67
2023/07/04 05:51:14;;;;;;;3.45;1.35;;;;;;;25.20;34.57;100798.56;4990362;28;20042;-69
2023/07/04 05:53:43;;;;;;;4.30;1.73;;;;;;;25.06;35.38;100808.69;4988633;28;20109;-69
2023/07/04 05:56:13;;;;;;;3.67;1.58;;;;;;;24.93;37.12;100807.31;4991010;28;20038;-69
2023/07/04 05:58:43;;;;;;;4.00;1.42;;;;;;;24.82;36.10;100804.97;4992333;28;20034;-68
2023/07/04 06:01:14;;;;;;;3.25;1.50;;;;;;;24.76;35.12;100805.13;4990717;28;20059;-68
2023/07/04 06:03:45;;;;;;;4.82;1.55;;;;;;;24.70;35.22;100800.03;4983429;28;20050;-68
2023/07/04 06:06:20;;;;;;;5.18;1.50;;;;;;;24.63;36.45;100799.34;4986068;28;20137;-69
2023/07/04 06:08:49;;;;;;;2.75;1.45;;;;;;;24.53;36.63;100800.47;4989823;28;20038;-69
2023/07/04 06:11:18;;;;;;;3.72;1.45;;;;;;;24.42;35.75;100798.13;4988230;28;20054;-69
2023/07/04 06:13:47;;;;;;;5.00;1.80;;;;;;;24.33;36.18;100799.22;4988035;28;20144;-69
2023/07/04 06:16:16;;;;;;;5.50;2.03;;;;;;;24.24;35.81;100800.34;4993570;28;20049;-69
2023/07/04 06:18:46;;;;;;;4.63;1.40;;;;;;;24.16;35.80;100804.09;4987591;28;20054;-68
2023/07/04 06:21:16;;;;;;;4.13;1.52;;;;;;;24.09;34.96;100803.38;4987038;28;20042;-68
2023/07/04 06:23:45;;;;;;;4.70;1.52;;;;;;;24.00;34.38;100799.19;4987866;28;20136;-68
2023/07/04 06:26:15;;;;;;;5.40;1.40;;;;;;;23.97;34.18;100799.28;4987583;28;20093;-68
2023/07/04 06:28:44;;;;;;;2.72;1.30;;;;;;;23.96;35.46;100801.94;4988259;28;20038;-69
2023/07/04 06:31:16;;;;;;;3.97;1.30;;;;;;;23.90;35.13;100800.34;4987532;28;20057;-69
2023/07/04 06:33:46;;;;;;;5.72;1.48;;;;;;;23.84;35.11;100797.84;4989517;28;20061;-68
2023/07/04 06:36:16;;;;;;;4.78;1.92;;;;;;;23.76;35.82;100799.81;4987046;28;20069;-67
2023/07/04 06:38:45;;;;;;;5.25;1.60;;;;;;;23.71;36.17;100807.81;4986655;28;20047;-68
2023/07/04 06:41:15;;;;;;;4.65;1.45;;;;;;;23.56;36.76;100798.47;4990130;28;20057;-68
2023/07/04 06:43:46;;;;;;;5.55;1.45;;;;;;;23.57;36.00;100808.16;4986186;28;20105;-70
2023/07/04 06:46:17;;;;;;;4.07;1.50;;;;;;;23.51;37.13;100805.66;4988803;28;20085;-68
2023/07/04 06:48:48;;;;;;;7.10;1.33;;;;;;;23.44;36.50;100814.63;4987175;28;20051;-69
2023/07/04 06:51:17;;;;;;;4.35;1.30;;;;;;;23.37;36.84;100810.38;4989747;28;20254;-69
2023/07/04 06:53:46;;;;;;;4.13;1.40;;;;;;;23.30;37.34;100812.28;4986561;28;20062;-68
2023/07/04 06:56:17;;;;;;;4.75;1.70;;;;;;;23.23;38.26;100815.06;4996472;28;20580;-68
2023/07/04 06:58:49;;;;;;;3.60;1.10;;;;;;;23.19;38.44;100817.78;4987559;28;20053;-68
2023/07/04 07:01:19;;;;;;;3.92;1.50;;;;;;;23.16;36.66;100819.66;4985173;28;20054;-70
2023/07/04 07:03:50;;;;;;;3.67;1.50;;;;;;;23.10;36.97;100818.00;4986096;28;20057;-69
2023/07/04 07:06:18;;;;;;;4.33;1.47;;;;;;;22.99;36.69;100818.22;4985686;28;20611;-69
2023/07/04 07:08:47;;;;;;;5.50;1.30;;;;;;;22.91;38.03;100828.03;4986788;28;20054;-68
2023/07/04 07:11:18;;;;;;;3.28;1.17;;;;;;;22.82;37.89;100824.72;4989045;28;20051;-69
2023/07/04 07:13:46;;;;;;;3.75;1.00;;;;;;;22.72;37.10;100824.91;4985573;28;20047;-68
2023/07/04 07:16:24;;;;;;;3.78;1.52;;;;;;;22.66;37.19;100822.38;4987877;28;20181;-69
2023/07/04 07:18:56;;;;;;;3.15;1.20;;;;;;;22.62;37.21;100818.06;4989081;28;20106;-69
2023/07/04 07:21:26;;;;;;;3.45;1.02;;;;;;;22.55;37.27;100813.81;4988000;28;20538;-69
2023/07/04 07:23:55;;;;;;;6.35;1.30;;;;;;;22.51;37.85;100817.38;4989417;28;20759;-69
2023/07/04 07:26:25;;;;;;;4.05;1.20;;;;;;;22.47;38.45;100818.34;4986270;28;20043;-69
2023/07/04 07:28:53;;;;;;;4.30;1.10;;;;;;;22.43;38.63;100825.47;4991784;28;20058;-67
2023/07/04 07:31:23;;;;;;;3.15;1.02;;;;;;;22.45;38.37;100828.03;4987759;28;20508;-68
2023/07/04 07:33:54;;;;;;;2.22;0.77;;;;;;;22.43;37.52;100838.63;4985031;28;20681;-68
2023/07/04 07:36:26;;;;;;;3.22;1.02;;;;;;;22.37;37.55;100826.41;4986430;28;20496;-70
2023/07/04 07:38:55;;;;;;;;;;;;;;;22.31;37.54;100837.09;4985614;28;20522;-68
2023/07/04 07:41:27;;;;;;;4.05;1.20;;;;;;;22.24;37.58;100837.22;4986898;28;20004;-68
2023/07/04 07:43:56;;;;;;;2.70;0.98;;;;;;;22.16;37.48;100829.41;4988316;28;20046;-69
2023/07/04 07:46:24;;;;;;;3.03;0.98;;;;;;;22.09;37.99;100830.41;4988250;28;20104;-70
2023/07/04 07:48:55;;;;;;;2.50;1.00;;;;;;;22.03;38.24;100834.00;4988995;28;20050;-69
2023/07/04 07:51:24;;;;;;;4.32;1.10;;;;;;;22.00;38.98;100833.22;4985977;28;20097;-69
2023/07/04 07:53:54;;;;;;;4.05;0.70;;;;;;;21.94;39.09;100837.69;4985629;28;20043;-68
2023/07/04 07:56:25;;;;;;;3.55;0.95;;;;;;;21.87;39.49;100837.78;4989316;28;20081;-69
2023/07/04 07:58:55;;;;;;;3.00;1.20;;;;;;;21.81;40.41;100844.03;4993295;28;20074;-69
2023/07/04 08:01:25;;;;;;;2.92;1.02;;;;;;;21.77;41.85;100846.75;4990204;28;20046;-69
2023/07/04 08:03:55;;;;;;;2.33;0.98;;;;;;;21.72;41.97;100846.81;4993841;28;20054;-69
2023/07/04 08:06:26;;;;;;;4.70;1.10;;;;;;;21.70;40.10;100853.88;4996415;28;20148;-68
2023/07/04 08:08:55;;;;;;;3.42;1.00;;;;;;;21.63;41.03;100846.94;4992126;28;20107;-69
2023/07/04 08:11:24;;;;;;;3.55;1.35;;;;;;;21.56;41.28;100853.22;4990108;28;20132;-69
2023/07/04 08:13:53;;;;;;;2.05;0.80;;;;;;;21.49;41.61;100848.03;4991050;28;20058;-69
2023/07/04 08:16:26;;;;;;;2.97;0.80;;;;;;;21.47;40.25;100855.06;4994040;28;20046;-68
2023/07/04 08:18:56;;;;;;;2.67;0.80;;;;;;;21.46;39.56;100855.97;4993156;28;20046;-68
2023/07/04 08:21:25;;;;;;;4.85;0.85;;;;;;;21.44;39.97;100846.31;4993471;28;20104;-69
2023/07/04 08:23:54;;;;;;;2.80;0.82;;;;;;;21.40;40.46;100847.25;4993287;28;20514;-68
2023/07/04 08:26:24;;;;;;;2.45;1.00;;;;;;;21.40;41.08;100849.88;4986677;28;20114;-69
2023/07/04 08:28:54;;;;;;;5.18;1.17;;;;;;;21.33;40.76;100847.31;4992403;28;20042;-68
2023/07/04 08:31:23;;;;;;;3.67;1.05;;;;;;;21.34;39.72;100848.19;4992953;28;20050;-68
2023/07/04 08:33:52;;;;;;;2.63;0.93;;;;;;;21.34;39.83;100854.31;4996246;28;20046;-68
2023/07/04 08:36:23;;;;;;;2.13;0.85;;;;;;;21.33;40.19;100849.09;4993871;28;20065;-68
2023/07/04 08:38:53;;;;;;;4.75;1.00;;;;;;;21.33;40.93;100859.63;4993885;28;20053;-69
2023/07/04 08:41:40;;;;;;;5.18;1.10;;;;;;;21.25;40.73;100848.31;4990476;28;20141;-69
2023/07/04 08:44:13;;;;;;;3.33;1.10;;;;;;;21.18;41.56;100851.91;4993791;28;20138;-69
2023/07/04 08:46:44;;;;;;;1.75;0.82;;;;;;;21.10;41.27;100850.25;4990744;28;21213;-70
2023/07/04 08:49:30;;;;;;;3.85;0.95;;;;;;;21.04;41.73;100855.59;4992628;28;20061;-69
2023/07/04 08:52:21;;;;;;;2.85;1.05;;;;;;;20.98;41.62;100860.03;4993571;28;20649;-69
2023/07/04 08:54:49;;;;;;;2.10;0.68;;;;;;;20.90;41.58;100853.13;4994208;28;20104;-67
2023/07/04 08:57:29;;;;;;;4.82;0.85;;;;;;;20.83;42.51;100853.22;4994530;28;20042;-68
2023/07/04 09:00:04;;;;;;;3.38;0.80;;;;;;;20.78;42.25;100866.41;4992106;28;20046;-68
2023/07/04 09:03:12;;;;;;;2.58;1.10;;;;;;;20.74;41.99;100856.81;4994205;28;20050;-68
2023/07/04 09:05:51;;;;;;;4.07;0.85;;;;;;;20.70;43.48;100860.34;4983296;28;20065;-68
2023/07/04 09:08:35;;;;;;;1.70;0.85;;;;;;;20.54;44.93;100849.09;4992603;28;20050;-68
2023/07/04 09:11:07;;;;;;;2.28;1.00;;;;;;;20.56;45.10;100862.22;4987838;28;20054;-67
2023/07/04 09:13:37;;;;;;;;;;;;;;;20.55;43.77;100865.72;4989274;28;20062;-67
2023/07/04 09:16:11;;;;;;;2.08;1.00;;;;;;;20.52;44.93;100861.38;4988223;28;19925;-67
2023/07/04 09:18:49;;;;;;;2.28;0.88;;;;;;;20.52;44.11;100861.38;4989323;28;20416;-68
2023/07/04 09:21:19;;;;;;;5.20;1.17;;;;;;;20.46;43.73;100861.44;4987847;28;20061;-67
2023/07/04 09:23:51;;;;;;;3.08;1.10;;;;;;;20.41;43.32;100864.13;4985776;28;20130;-67
2023/07/04 09:26:24;;;;;;;2.03;0.93;;;;;;;20.39;43.48;100865.03;4991496;28;20054;-68
2023/07/04 09:28:55;;;;;;;4.30;1.10;;;;;;;20.33;43.73;100865.06;4989917;28;20111;-67
2023/07/04 09:31:25;;;;;;;4.97;1.25;;;;;;;20.27;43.84;100865.97;4988169;28;20050;-68
2023/07/04 09:33:55;;;;;;;5.78;0.98;;;;;;;20.24;44.45;100861.63;4987276;28;20526;-69
2023/07/04 09:36:28;;;;;;;2.58;1.08;;;;;;;20.18;45.89;100860.81;4989484;28;20058;-69
2023/07/04 09:39:01;;;;;;;4.80;0.82;;;;;;;20.13;45.37;100871.34;4987896;28;20054;-68
2023/07/04 09:41:32;;;;;;;3.47;1.00;;;;;;;20.10;45.51;100866.13;4987215;28;20168;-68
2023/07/04 09:44:14;;;;;;;2.15;1.13;;;;;;;20.05;45.45;100870.56;4988322;28;20050;-67
2023/07/04 09:46:49;;;;;;;2.47;1.20;;;;;;;19.99;45.50;100865.34;4987837;28;20066;-67
2023/07/04 09:49:25;;;;;;;10.05;1.05;;;;;;;19.94;45.75;100867.13;4988761;28;20057;-67
2023/07/04 09:52:03;;;;;;;2.58;0.95;;;;;;;19.84;46.22;100866.34;4987498;28;20492;-67
2023/07/04 09:54:35;;;;;;;1.92;1.00;;;;;;;19.71;46.72;100852.41;4988395;28;20046;-67
2023/07/04 09:57:22;;;;;;;2.92;1.38;;;;;;;19.72;47.36;100862.03;4989555;28;20077;-68
2023/07/04 09:59:51;;;;;;;6.47;1.10;;;;;;;19.70;47.29;100869.06;4985826;28;20074;-68
2023/07/04 10:02:27;;;;;;;4.60;1.45;;;;;;;19.57;47.49;100856.84;4990160;28;20054;-67
2023/07/04 10:04:56;;;;;;;3.17;0.93;;;;;;;19.59;47.51;100870.84;4987906;28;20500;-68
2023/07/04 10:07:26;;;;;;;2.70;1.00;;;;;;;19.56;47.87;100865.59;4988176;28;20050;-68
2023/07/04 10:09:58;;;;;;;2.15;1.20;;;;;;;19.52;47.84;100858.63;4985510;28;20050;-68
2023/07/04 10:12:30;;;;;;;2.17;1.27;;;;;;;19.43;48.69;100870.91;4987607;28;20046;-68
2023/07/04 10:15:07;;;;;;;3.40;1.10;;;;;;;19.36;48.41;100871.84;4986826;28;20795;-68
2023/07/04 10:17:39;;;;;;;5.30;1.05;;;;;;;19.29;49.11;100872.75;4984128;28;20054;-69
2023/07/04 10:20:13;;;;;;;3.72;0.90;;;;;;;19.23;49.77;100865.75;4990152;28;20567;-69
2023/07/04 10:22:43;;;;;;;4.63;1.17;;;;;;;19.19;49.71;100871.03;4989811;28;20715;-68
2023/07/04 10:25:15;;;;;;;5.00;1.50;;;;;;;19.17;49.95;100875.41;4989169;28;20053;-67
2023/07/04 10:27:49;;;;;;;2.90;1.08;;;;;;;19.09;49.46;100877.19;4988465;28;20477;-67
2023/07/04 10:30:22;;;;;;;2.42;1.05;;;;;;;19.03;49.80;100873.72;4988168;28;20054;-68
2023/07/04 10:32:54;;;;;;;3.47;1.30;;;;;;;19.00;49.93;100870.22;4988727;28;20058;-69
2023/07/04 10:35:27;;;;;;;2.28;0.90;;;;;;;18.98;50.61;100877.22;4988103;28;20054;-68
2023/07/04 10:38:01;;;;;;;6.78;1.30;;;;;;;18.93;50.66;100873.75;4977710;28;20046;-70
2023/07/04 10:40:34;;;;;;;3.88;1.65;;;;;;;18.85;52.17;100871.13;4971211;28;20054;-69
2023/07/04 10:43:05;;;;;;;;;;;;;;;18.79;52.08;100871.16;4974692;28;20058;-67
2023/07/04 10:45:35;;;;;;;5.97;1.17;;;;;;;18.75;53.46;100878.13;4970672;28;19969;-68
2023/07/04 10:48:11;;;;;;;6.50;1.90;;;;;;;18.72;53.10;100869.41;4971258;28;20051;-68
2023/07/04 10:50:50;;;;;;;3.10;1.60;;;;;;;18.70;54.30;100876.41;4970187;28;20055;-68
2023/07/04 10:53:20;;;;;;;2.55;1.35;;;;;;;18.67;54.29;100872.03;4969446;28;20124;-68
2023/07/04 10:55:54;;;;;;;2.72;1.40;;;;;;;18.63;54.83;100881.63;4964939;28;20055;-67
2023/07/04 10:58:26;;;;;;;4.25;1.05;;;;;;;18.61;54.24;100874.66;4970889;28;20540;-67
2023/07/04 11:01:00;;;;;;;9.87;2.10;;;;;;;18.56;55.09;100874.66;4966254;28;20101;-68
2023/07/04 11:03:39;;;;;;;8.05;1.55;;;;;;;18.50;55.14;100879.91;4972405;28;20051;-68
2023/07/04 11:06:16;;;;;;;2.78;1.40;;;;;;;18.45;55.37;100876.44;4962158;28;20046;-67
2023/07/04 11:08:45;;;;;;;9.55;1.25;;;;;;;18.40;56.82;100871.19;4971384;28;20049;-69
2023/07/04 11:11:24;;;;;;;3.80;1.70;;;;;;;18.40;56.55;100875.56;4971016;28;20113;-67
2023/07/04 11:13:57;;;;;;;3.30;1.15;;;;;;;18.37;56.90;100873.81;4968754;28;20051;-67
2023/07/04 11:16:31;;;;;;;1.83;1.15;;;;;;;18.31;58.92;100872.94;4966280;28;20058;-70
2023/07/04 11:19:08;;;;;;;4.80;1.70;;;;;;;18.21;59.21;100872.09;4968549;28;20051;-68
2023/07/04 11:21:56;;;;;;;7.28;2.15;;;;;;;18.15;59.07;100874.69;4969612;28;20053;-68
2023/07/04 11:24:24;;;;;;;4.57;1.60;;;;;;;18.14;59.21;100876.44;4967930;28;20076;-68
2023/07/04 11:27:02;;;;;;;5.35;2.00;;;;;;;18.07;59.41;100868.56;4969786;28;20055;-68
2023/07/04 11:29:50;;;;;;;5.28;1.67;;;;;;;18.02;59.51;100860.72;4966789;28;20065;-68
2023/07/04 11:32:25;;;;;;;7.38;2.03;;;;;;;18.06;59.20;100877.31;4964981;28;20042;-67
2023/07/04 11:34:55;;;;;;;9.90;1.83;;;;;;;18.06;59.53;100880.78;4966620;28;20050;-68
2023/07/04 11:37:33;;;;;;;5.95;1.73;;;;;;;18.02;59.47;100881.66;4978084;28;20778;-69
2023/07/04 11:40:13;;;;;;;3.42;1.80;;;;;;;17.99;59.53;100886.91;4986552;28;20047;-68
2023/07/04 11:42:47;;;;;;;3.78;1.85;;;;;;;17.95;58.80;100885.16;4991594;28;20104;-67
2023/07/04 11:45:20;;;;;;;5.30;1.73;;;;;;;17.91;59.48;100870.31;4987984;28;20050;-68